sensor_id;sensor_type;location;lat;lon;timestamp;temperature;humidity
35305;DHT22;26433;48.034;-1.764;2023-04-25T05:01:56;9.50;78.90
35305;DHT22;26433;48.034;-1.764;2023-04-25T05:07:02;9.50;79.60
35305;DHT22;26433;48.034;-1.764;2023-04-25T05:12:06;9.60;80.30
35305;DHT22;26433;48.034;-1.764;2023-04-25T05:17:11;9.40;80.60
35305;DHT22;26433;48.034;-1.764;2023-04-25T05:22:15;9.40;80.50
35305;DHT22;26433;48.034;-1.764;2023-04-25T05:27:22;9.40;80.60
35305;DHT22;26433;48.034;-1.764;2023-04-25T05:32:28;9.40;80.60
35305;DHT22;26433;48.034;-1.764;2023-04-25T05:37:32;9.40;79.90
35305;DHT22;26433;48.034;-1.764;2023-04-25T05:42:37;9.50;79.50
35305;DHT22;26433;48.034;-1.764;2023-04-25T05:47:42;9.60;79.00
35305;DHT22;26433;48.034;-1.764;2023-04-25T05:52:46;9.60;79.00
35305;DHT22;26433;48.034;-1.764;2023-04-25T05:57:51;9.60;79.00
35305;DHT22;26433;48.034;-1.764;2023-04-25T06:02:56;9.70;79.20
35305;DHT22;26433;48.034;-1.764;2023-04-25T06:08:00;9.70;79.60
35305;DHT22;26433;48.034;-1.764;2023-04-25T06:13:03;9.70;79.30
35305;DHT22;26433;48.034;-1.764;2023-04-25T06:18:09;9.90;78.70
35305;DHT22;26433;48.034;-1.764;2023-04-25T06:23:12;10.10;79.10
35305;DHT22;26433;48.034;-1.764;2023-04-25T06:28:16;10.10;78.60
35305;DHT22;26433;48.034;-1.764;2023-04-25T06:33:21;10.10;78.60
35305;DHT22;26433;48.034;-1.764;2023-04-25T06:38:26;10.20;78.20
35305;DHT22;26433;48.034;-1.764;2023-04-25T06:43:30;10.10;77.90
35305;DHT22;26433;48.034;-1.764;2023-04-25T06:53:43;10.50;78.40
35305;DHT22;26433;48.034;-1.764;2023-04-25T06:58:48;10.60;78.20
35305;DHT22;26433;48.034;-1.764;2023-04-25T07:03:53;10.80;77.60
35305;DHT22;26433;48.034;-1.764;2023-04-25T07:08:58;10.90;77.70
35305;DHT22;26433;48.034;-1.764;2023-04-25T07:14:02;11.00;77.50
35305;DHT22;26433;48.034;-1.764;2023-04-25T07:19:06;11.20;77.50
35305;DHT22;26433;48.034;-1.764;2023-04-25T07:24:11;11.30;77.40
35305;DHT22;26433;48.034;-1.764;2023-04-25T07:29:16;10.10;76.50
35305;DHT22;26433;48.034;-1.764;2023-04-25T07:34:20;11.80;76.90
35305;DHT22;26433;48.034;-1.764;2023-04-25T07:39:25;12.00;76.60
35305;DHT22;26433;48.034;-1.764;2023-04-25T07:44:28;12.20;76.50
35305;DHT22;26433;48.034;-1.764;2023-04-25T07:49:33;12.40;76.10
35305;DHT22;26433;48.034;-1.764;2023-04-25T07:54:38;12.70;76.10
35305;DHT22;26433;48.034;-1.764;2023-04-25T07:59:43;12.90;75.50
35305;DHT22;26433;48.034;-1.764;2023-04-25T08:04:47;13.10;75.50
35305;DHT22;26433;48.034;-1.764;2023-04-25T08:09:53;13.40;74.80
35305;DHT22;26433;48.034;-1.764;2023-04-25T08:14:57;13.50;75.00
35305;DHT22;26433;48.034;-1.764;2023-04-25T08:20:02;13.60;74.50
35305;DHT22;26433;48.034;-1.764;2023-04-25T08:25:09;13.80;74.70
35305;DHT22;26433;48.034;-1.764;2023-04-25T08:30:14;13.90;74.40
35305;DHT22;26433;48.034;-1.764;2023-04-25T08:35:17;14.00;74.50
35305;DHT22;26433;48.034;-1.764;2023-04-25T08:40:22;14.10;74.30
35305;DHT22;26433;48.034;-1.764;2023-04-25T08:45:28;14.30;74.10
35305;DHT22;26433;48.034;-1.764;2023-04-25T08:50:33;14.60;73.80
35305;DHT22;26433;48.034;-1.764;2023-04-25T08:55:39;14.70;73.30
35305;DHT22;26433;48.034;-1.764;2023-04-25T09:00:45;14.90;73.20
35305;DHT22;26433;48.034;-1.764;2023-04-25T09:05:49;15.10;72.70
35305;DHT22;26433;48.034;-1.764;2023-04-25T09:10:56;15.30;72.20
35305;DHT22;26433;48.034;-1.764;2023-04-25T09:16:00;15.50;72.50
35305;DHT22;26433;48.034;-1.764;2023-04-25T09:21:05;15.60;72.20
35305;DHT22;26433;48.034;-1.764;2023-04-25T09:26:18;15.70;72.20
35305;DHT22;26433;48.034;-1.764;2023-04-25T09:31:23;16.00;71.80
35305;DHT22;26433;48.034;-1.764;2023-04-25T09:36:30;16.70;70.40
35305;DHT22;26433;48.034;-1.764;2023-04-25T09:41:38;17.10;69.10
35305;DHT22;26433;48.034;-1.764;2023-04-25T09:46:43;17.00;69.80
35305;DHT22;26433;48.034;-1.764;2023-04-25T09:51:55;17.00;69.90
35305;DHT22;26433;48.034;-1.764;2023-04-25T09:57:03;17.20;70.00
35305;DHT22;26433;48.034;-1.764;2023-04-25T10:02:13;17.80;68.40
35305;DHT22;26433;48.034;-1.764;2023-04-25T10:07:21;17.90;68.10
35305;DHT22;26433;48.034;-1.764;2023-04-25T10:12:29;18.00;68.40
35305;DHT22;26433;48.034;-1.764;2023-04-25T10:17:33;17.80;68.80
35305;DHT22;26433;48.034;-1.764;2023-04-25T10:22:37;17.90;69.20
35305;DHT22;26433;48.034;-1.764;2023-04-25T10:27:43;18.20;68.40
35305;DHT22;26433;48.034;-1.764;2023-04-25T10:32:47;18.40;67.80
35305;DHT22;26433;48.034;-1.764;2023-04-25T10:37:59;19.40;65.50
35305;DHT22;26433;48.034;-1.764;2023-04-25T10:48:26;19.90;64.60
35305;DHT22;26433;48.034;-1.764;2023-04-25T10:53:30;19.90;64.90
35305;DHT22;26433;48.034;-1.764;2023-04-25T10:58:36;19.70;65.00
35305;DHT22;26433;48.034;-1.764;2023-04-25T11:03:43;19.90;65.10
35305;DHT22;26433;48.034;-1.764;2023-04-25T11:08:48;20.60;63.50
35305;DHT22;26433;48.034;-1.764;2023-04-25T11:13:52;21.50;61.70
35305;DHT22;26433;48.034;-1.764;2023-04-25T11:18:58;22.10;60.80
35305;DHT22;26433;48.034;-1.764;2023-04-25T11:24:01;22.50;59.80
35305;DHT22;26433;48.034;-1.764;2023-04-25T11:29:05;22.70;59.20
35305;DHT22;26433;48.034;-1.764;2023-04-25T11:34:10;21.90;60.70
35305;DHT22;26433;48.034;-1.764;2023-04-25T11:39:13;21.10;62.50
35305;DHT22;26433;48.034;-1.764;2023-04-25T11:44:17;20.60;63.80
35305;DHT22;26433;48.034;-1.764;2023-04-25T11:49:22;20.40;64.20
35305;DHT22;26433;48.034;-1.764;2023-04-25T11:54:26;20.20;64.00
35305;DHT22;26433;48.034;-1.764;2023-04-25T11:59:30;20.30;63.90
35305;DHT22;26433;48.034;-1.764;2023-04-25T12:04:34;20.10;64.00
35305;DHT22;26433;48.034;-1.764;2023-04-25T12:09:38;20.10;63.90
35305;DHT22;26433;48.034;-1.764;2023-04-25T12:14:45;20.20;63.80
35305;DHT22;26433;48.034;-1.764;2023-04-25T12:19:51;20.00;63.40
35305;DHT22;26433;48.034;-1.764;2023-04-25T12:24:54;19.80;64.00
35305;DHT22;26433;48.034;-1.764;2023-04-25T12:30:00;19.70;63.70
35305;DHT22;26433;48.034;-1.764;2023-04-25T12:35:05;19.50;63.90
35305;DHT22;26433;48.034;-1.764;2023-04-25T12:40:09;19.40;63.60
35305;DHT22;26433;48.034;-1.764;2023-04-25T12:45:13;19.20;64.40
35305;DHT22;26433;48.034;-1.764;2023-04-25T12:50:17;19.10;64.00
35305;DHT22;26433;48.034;-1.764;2023-04-25T12:55:21;19.00;64.30
35305;DHT22;26433;48.034;-1.764;2023-04-25T13:00:24;19.00;64.30
35305;DHT22;26433;48.034;-1.764;2023-04-25T13:05:30;19.00;64.20
35305;DHT22;26433;48.034;-1.764;2023-04-25T13:10:33;19.10;64.10
35305;DHT22;26433;48.034;-1.764;2023-04-25T13:15:38;19.10;64.00
35305;DHT22;26433;48.034;-1.764;2023-04-25T13:20:42;19.20;63.80
35305;DHT22;26433;48.034;-1.764;2023-04-25T13:25:46;19.10;63.70
35305;DHT22;26433;48.034;-1.764;2023-04-25T13:30:49;19.00;63.90
35305;DHT22;26433;48.034;-1.764;2023-04-25T13:35:55;18.70;64.50
35305;DHT22;26433;48.034;-1.764;2023-04-25T13:40:59;18.60;64.30
35305;DHT22;26433;48.034;-1.764;2023-04-25T13:46:03;18.60;64.20
35305;DHT22;26433;48.034;-1.764;2023-04-25T13:51:08;18.90;63.90
35305;DHT22;26433;48.034;-1.764;2023-04-25T13:56:11;19.10;63.40
35305;DHT22;26433;48.034;-1.764;2023-04-25T14:01:15;19.40;62.70
35305;DHT22;26433;48.034;-1.764;2023-04-25T14:06:19;19.50;62.50
35305;DHT22;26433;48.034;-1.764;2023-04-25T14:11:25;19.60;62.30
35305;DHT22;26433;48.034;-1.764;2023-04-25T14:16:29;19.40;62.70
35305;DHT22;26433;48.034;-1.764;2023-04-25T14:21:34;19.00;63.40
35305;DHT22;26433;48.034;-1.764;2023-04-25T14:26:38;18.80;63.90
35305;DHT22;26433;48.034;-1.764;2023-04-25T14:31:42;18.90;64.50
35305;DHT22;26433;48.034;-1.764;2023-04-25T14:36:48;18.30;64.60
35305;DHT22;26433;48.034;-1.764;2023-04-25T14:41:52;18.60;64.10
35305;DHT22;26433;48.034;-1.764;2023-04-25T14:46:55;18.50;63.80
35305;DHT22;26433;48.034;-1.764;2023-04-25T14:52:00;18.60;63.30
35305;DHT22;26433;48.034;-1.764;2023-04-25T14:57:04;18.90;63.20
35305;DHT22;26433;48.034;-1.764;2023-04-25T15:02:07;20.70;63.30
35305;DHT22;26433;48.034;-1.764;2023-04-25T15:07:12;19.20;62.00
35305;DHT22;26433;48.034;-1.764;2023-04-25T15:12:19;19.30;62.10
35305;DHT22;26433;48.034;-1.764;2023-04-25T15:17:23;19.10;62.50
35305;DHT22;26433;48.034;-1.764;2023-04-25T15:22:27;20.00;63.10
35305;DHT22;26433;48.034;-1.764;2023-04-25T15:27:31;18.50;63.30
35305;DHT22;26433;48.034;-1.764;2023-04-25T15:32:35;18.40;63.80
35305;DHT22;26433;48.034;-1.764;2023-04-25T15:37:40;18.30;63.80
35305;DHT22;26433;48.034;-1.764;2023-04-25T15:42:44;18.40;63.90
35305;DHT22;26433;48.034;-1.764;2023-04-25T15:47:49;18.10;63.70
35305;DHT22;26433;48.034;-1.764;2023-04-25T15:52:55;18.00;64.00
35305;DHT22;26433;48.034;-1.764;2023-04-25T15:57:59;17.90;64.30
35305;DHT22;26433;48.034;-1.764;2023-04-25T16:03:02;17.80;64.00
35305;DHT22;26433;48.034;-1.764;2023-04-25T16:08:07;17.50;64.50
35305;DHT22;26433;48.034;-1.764;2023-04-25T16:13:11;17.50;64.60
35305;DHT22;26433;48.034;-1.764;2023-04-25T16:18:14;17.40;64.80
35305;DHT22;26433;48.034;-1.764;2023-04-25T16:23:19;17.30;64.70
35305;DHT22;26433;48.034;-1.764;2023-04-25T16:28:23;17.20;64.70
35305;DHT22;26433;48.034;-1.764;2023-04-25T16:33:26;17.10;64.90
35305;DHT22;26433;48.034;-1.764;2023-04-25T16:38:31;17.10;64.80
35305;DHT22;26433;48.034;-1.764;2023-04-25T16:43:35;17.00;64.70
35305;DHT22;26433;48.034;-1.764;2023-04-25T16:48:41;16.90;64.70
35305;DHT22;26433;48.034;-1.764;2023-04-25T16:53:45;16.90;64.70
35305;DHT22;26433;48.034;-1.764;2023-04-25T16:58:49;16.90;64.80
35305;DHT22;26433;48.034;-1.764;2023-04-25T17:03:53;16.90;64.40
35305;DHT22;26433;48.034;-1.764;2023-04-25T17:08:59;16.90;64.70
35305;DHT22;26433;48.034;-1.764;2023-04-25T17:14:02;16.80;64.70
35305;DHT22;26433;48.034;-1.764;2023-04-25T17:19:07;16.90;64.40
35305;DHT22;26433;48.034;-1.764;2023-04-25T17:24:12;16.80;64.60
35305;DHT22;26433;48.034;-1.764;2023-04-25T17:29:16;16.80;64.50
35305;DHT22;26433;48.034;-1.764;2023-04-25T17:34:20;16.80;64.60
35305;DHT22;26433;48.034;-1.764;2023-04-25T17:39:25;16.80;64.70
35305;DHT22;26433;48.034;-1.764;2023-04-25T17:44:28;16.60;64.40
35305;DHT22;26433;48.034;-1.764;2023-04-25T17:49:32;16.60;64.40
35305;DHT22;26433;48.034;-1.764;2023-04-25T17:54:36;16.70;65.10
35305;DHT22;26433;48.034;-1.764;2023-04-25T17:59:40;16.40;64.60
35305;DHT22;26433;48.034;-1.764;2023-04-25T18:04:43;16.40;65.10
35305;DHT22;26433;48.034;-1.764;2023-04-25T18:09:48;16.40;64.90
35305;DHT22;26433;48.034;-1.764;2023-04-25T18:14:51;16.30;65.10
35305;DHT22;26433;48.034;-1.764;2023-04-25T18:19:55;16.30;65.20
35305;DHT22;26433;48.034;-1.764;2023-04-25T18:24:59;16.20;65.30
35305;DHT22;26433;48.034;-1.764;2023-04-25T18:30:06;16.20;64.70
35305;DHT22;26433;48.034;-1.764;2023-04-25T18:35:10;16.10;64.70
35305;DHT22;26433;48.034;-1.764;2023-04-25T18:40:14;16.10;64.40
35305;DHT22;26433;48.034;-1.764;2023-04-25T18:45:18;16.10;64.90
35305;DHT22;26433;48.034;-1.764;2023-04-25T18:50:21;16.00;64.60
35305;DHT22;26433;48.034;-1.764;2023-04-25T18:55:28;16.00;64.70
35305;DHT22;26433;48.034;-1.764;2023-04-25T19:00:32;15.90;65.00
35305;DHT22;26433;48.034;-1.764;2023-04-25T19:05:35;15.80;64.90
35305;DHT22;26433;48.034;-1.764;2023-04-25T19:10:40;15.70;65.10
35305;DHT22;26433;48.034;-1.764;2023-04-25T19:15:44;15.70;65.60
35305;DHT22;26433;48.034;-1.764;2023-04-25T19:20:47;15.60;65.70
35305;DHT22;26433;48.034;-1.764;2023-04-25T19:25:52;15.50;66.80
35305;DHT22;26433;48.034;-1.764;2023-04-25T19:30:56;15.50;67.20
35305;DHT22;26433;48.034;-1.764;2023-04-25T19:36:00;15.40;66.80
35305;DHT22;26433;48.034;-1.764;2023-04-25T19:41:05;15.40;67.00
35305;DHT22;26433;48.034;-1.764;2023-04-25T19:46:08;15.30;67.10
35305;DHT22;26433;48.034;-1.764;2023-04-25T19:51:12;15.30;66.70
35305;DHT22;26433;48.034;-1.764;2023-04-25T19:56:17;15.20;67.00
35305;DHT22;26433;48.034;-1.764;2023-04-25T20:01:20;15.30;66.80
35305;DHT22;26433;48.034;-1.764;2023-04-25T20:06:24;15.20;67.00
35305;DHT22;26433;48.034;-1.764;2023-04-25T20:11:29;15.10;67.00
35305;DHT22;26433;48.034;-1.764;2023-04-25T20:16:33;15.10;67.20
35305;DHT22;26433;48.034;-1.764;2023-04-25T20:21:37;15.20;67.30
35305;DHT22;26433;48.034;-1.764;2023-04-25T20:26:42;15.10;67.20
35305;DHT22;26433;48.034;-1.764;2023-04-25T20:31:45;15.00;67.50
35305;DHT22;26433;48.034;-1.764;2023-04-25T20:36:50;15.00;67.30
35305;DHT22;26433;48.034;-1.764;2023-04-25T20:41:55;14.90;68.10
35305;DHT22;26433;48.034;-1.764;2023-04-25T20:46:58;14.70;68.40
35305;DHT22;26433;48.034;-1.764;2023-04-25T20:52:04;14.60;68.70
35305;DHT22;26433;48.034;-1.764;2023-04-25T20:57:10;14.70;68.40
35305;DHT22;26433;48.034;-1.764;2023-04-25T21:02:13;14.70;68.70
35305;DHT22;26433;48.034;-1.764;2023-04-25T21:07:16;14.70;68.40
35305;DHT22;26433;48.034;-1.764;2023-04-25T21:12:21;14.70;68.30
35305;DHT22;26433;48.034;-1.764;2023-04-25T21:17:25;14.70;68.40
35305;DHT22;26433;48.034;-1.764;2023-04-25T21:22:28;14.60;68.70
35305;DHT22;26433;48.034;-1.764;2023-04-25T21:27:33;14.60;69.00
35305;DHT22;26433;48.034;-1.764;2023-04-25T21:32:36;14.60;68.70
35305;DHT22;26433;48.034;-1.764;2023-04-25T21:37:41;14.60;68.80
35305;DHT22;26433;48.034;-1.764;2023-04-25T21:42:46;14.60;69.10
35305;DHT22;26433;48.034;-1.764;2023-04-25T21:47:52;14.50;69.10
35305;DHT22;26433;48.034;-1.764;2023-04-25T21:52:56;14.50;69.10
35305;DHT22;26433;48.034;-1.764;2023-04-25T21:58:01;14.50;69.50
35305;DHT22;26433;48.034;-1.764;2023-04-25T22:03:05;14.40;69.40
35305;DHT22;26433;48.034;-1.764;2023-04-25T22:08:08;14.40;69.40
35305;DHT22;26433;48.034;-1.764;2023-04-25T22:13:13;14.40;69.70
35305;DHT22;26433;48.034;-1.764;2023-04-25T22:18:17;14.30;69.70
35305;DHT22;26433;48.034;-1.764;2023-04-25T22:23:20;14.30;69.90
35305;DHT22;26433;48.034;-1.764;2023-04-25T22:28:25;14.20;69.90
